Time;durP1;ratioP1;P1;durP2;ratioP2;P2;SDS_P1;SDS_P2;PMS_P1;PMS_P2;Temp;Humidity;BMP_temperature;BMP_pressure;BME280_temperature;BME280_humidity;BME280_pressure;Samples;Min_cycle;Max_cycle;Signal;HPM_P1;HPM_P2
2023/07/01 00:00:24;;;;;;;4.80;4.18;;;;;;;-140.66;100.00;55571.53;5157733;27;20046;-73
2023/07/01 00:03:10;;;;;;;5.47;3.85;;;;;;;-140.66;100.00;55571.53;5158507;27;20026;-72
2023/07/01 00:05:58;;;;;;;5.82;4.50;;;;;;;-140.66;100.00;55571.53;5158649;27;20027;-73
2023/07/01 00:08:43;;;;;;;5.00;4.50;;;;;;;-140.66;100.00;55571.53;5157583;27;20034;-72
2023/07/01 00:11:29;;;;;;;5.15;4.57;;;;;;;-140.66;100.00;55571.53;5157418;27;20330;-72
2023/07/01 00:14:15;;;;;;;5.13;4.63;;;;;;;-140.66;100.00;55571.53;5157424;27;20087;-72
2023/07/01 00:17:02;;;;;;;7.60;5.40;;;;;;;-140.66;100.00;55571.53;5143448;27;20030;-73
2023/07/01 00:19:48;;;;;;;6.65;4.90;;;;;;;-140.66;100.00;55571.53;5157384;27;20062;-72
2023/07/01 00:22:33;;;;;;;6.20;5.00;;;;;;;-140.66;100.00;55571.53;5142923;27;20019;-73
2023/07/01 00:25:19;;;;;;;6.68;5.03;;;;;;;-140.66;100.00;55571.53;5156619;27;20019;-71
2023/07/01 00:28:05;;;;;;;5.65;5.13;;;;;;;-140.66;100.00;55571.53;5150032;27;20015;-72
2023/07/01 00:30:51;;;;;;;5.85;5.20;;;;;;;-140.66;100.00;55571.53;5136922;27;20026;-71
2023/07/01 00:33:37;;;;;;;6.95;5.35;;;;;;;-140.66;100.00;55571.53;5138989;27;20052;-72
2023/07/01 00:36:22;;;;;;;6.55;5.13;;;;;;;-140.66;100.00;55571.53;5136997;27;20356;-72
2023/07/01 00:39:08;;;;;;;5.80;5.20;;;;;;;-140.66;100.00;55571.53;5138098;27;20015;-73
2023/07/01 00:41:54;;;;;;;8.55;5.18;;;;;;;-140.66;100.00;55571.53;5137279;27;20023;-72
2023/07/01 00:44:40;;;;;;;7.75;5.07;;;;;;;-140.66;100.00;55571.53;5122959;27;20084;-72
2023/07/01 00:47:26;;;;;;;8.90;5.18;;;;;;;-140.66;100.00;55571.53;5137302;27;20110;-73
2023/07/01 00:50:13;;;;;;;9.48;5.45;;;;;;;-140.66;100.00;55571.53;5138562;27;20034;-72
2023/07/01 00:52:59;;;;;;;8.77;5.32;;;;;;;-140.66;100.00;55571.53;5137531;27;20080;-73
2023/07/01 00:55:45;;;;;;;8.77;5.88;;;;;;;-140.66;100.00;55571.53;5137321;27;20479;-72
2023/07/01 00:58:31;;;;;;;7.55;5.20;;;;;;;-140.66;100.00;55571.53;5135915;27;20039;-73
2023/07/01 01:01:25;;;;;;;7.25;5.70;;;;;;;-140.66;100.00;55571.53;5122312;27;20029;-71
2023/07/01 01:04:18;;;;;;;7.35;5.40;;;;;;;-140.66;100.00;55571.53;5141502;27;20469;-71
2023/07/01 01:07:14;;;;;;;7.68;5.28;;;;;;;-140.66;100.00;55571.53;5152327;27;20030;-71
2023/07/01 01:10:09;;;;;;;10.82;5.53;;;;;;;-140.66;100.00;55571.53;5175903;27;20034;-71
2023/07/01 01:12:57;;;;;;;6.93;4.95;;;;;;;-140.66;100.00;55571.53;5165730;27;20058;-72
2023/07/01 01:15:43;;;;;;;10.23;5.72;;;;;;;-140.66;100.00;55571.53;5144285;27;20078;-72
2023/07/01 01:18:32;;;;;;;11.32;5.53;;;;;;;-140.66;100.00;55571.53;5156378;27;20050;-72
2023/07/01 01:21:20;;;;;;;9.57;5.28;;;;;;;-140.66;100.00;55571.53;5156161;27;20023;-72
2023/07/01 01:24:08;;;;;;;6.03;5.38;;;;;;;-140.66;100.00;55571.53;5156581;27;20460;-73
2023/07/01 01:27:00;;;;;;;9.00;5.40;;;;;;;-140.66;100.00;55571.53;5157242;27;20479;-72
2023/07/01 01:29:46;;;;;;;8.30;5.68;;;;;;;-140.66;100.00;55571.53;5115878;28;20346;-72
2023/07/01 01:32:33;;;;;;;9.10;5.03;;;;;;;-140.66;100.00;55571.53;5102379;28;20115;-71
2023/07/01 01:35:19;;;;;;;11.15;5.50;;;;;;;-140.66;100.00;55571.53;5115859;28;20040;-72
2023/07/01 01:38:10;;;;;;;9.50;5.30;;;;;;;-140.66;100.00;55571.53;5113741;28;20065;-71
2023/07/01 01:41:10;;;;;;;10.00;5.57;;;;;;;-140.66;100.00;55571.53;5114866;28;20059;-72
2023/07/01 01:44:03;;;;;;;8.75;5.18;;;;;;;-140.66;100.00;55571.53;5115745;28;20445;-71
2023/07/01 01:46:48;;;;;;;8.98;5.55;;;;;;;-140.66;100.00;55571.53;5114530;28;20074;-72
2023/07/01 01:49:34;;;;;;;10.35;5.40;;;;;;;-140.66;100.00;55571.53;5114504;28;20028;-72
2023/07/01 01:52:21;;;;;;;7.55;4.78;;;;;;;-140.66;100.00;55571.53;5120106;28;20100;-72
2023/07/01 01:55:09;;;;;;;6.93;5.10;;;;;;;-140.66;100.00;55571.53;5126593;28;20037;-71
2023/07/01 01:57:55;;;;;;;12.07;5.20;;;;;;;-140.66;100.00;55571.53;5114444;28;20362;-72
2023/07/01 02:00:41;;;;;;;34.13;6.95;;;;;;;-140.66;100.00;55571.53;5115257;28;20022;-72
2023/07/01 02:03:27;;;;;;;22.00;6.43;;;;;;;-140.66;100.00;55571.53;5114312;28;20365;-72
2023/07/01 02:06:13;;;;;;;8.88;5.55;;;;;;;-140.66;100.00;55571.53;5114342;28;20050;-72
2023/07/01 02:08:59;;;;;;;25.92;6.20;;;;;;;-140.66;100.00;55571.53;5100618;28;20028;-73
2023/07/01 02:11:44;;;;;;;15.98;5.40;;;;;;;-140.66;100.00;55571.53;5121034;28;20078;-70
2023/07/01 02:14:31;;;;;;;10.48;5.50;;;;;;;-140.66;100.00;55571.53;5114139;28;20520;-72
2023/07/01 02:17:16;;;;;;;7.63;5.60;;;;;;;-140.66;100.00;55571.53;5109301;28;20333;-73
2023/07/01 02:20:03;;;;;;;7.93;5.10;;;;;;;-140.66;100.00;55571.53;5114883;28;20039;-71
2023/07/01 02:22:49;;;;;;;7.50;5.38;;;;;;;-140.66;100.00;55571.53;5116745;28;20050;-71
2023/07/01 02:25:35;;;;;;;6.78;5.03;;;;;;;-140.66;100.00;55571.53;5114199;28;20030;-71
2023/07/01 02:28:21;;;;;;;6.75;4.75;;;;;;;-140.66;100.00;55571.53;5118570;28;20019;-72
2023/07/01 02:31:07;;;;;;;10.63;5.20;;;;;;;-140.66;100.00;55571.53;5115006;28;20062;-72
2023/07/01 02:33:59;;;;;;;13.38;5.47;;;;;;;-140.66;100.00;55571.53;5114354;28;20023;-73
2023/07/01 02:36:45;;;;;;;8.63;5.10;;;;;;;-140.66;100.00;55571.53;5114834;28;20525;-72
2023/07/01 02:39:31;;;;;;;10.65;5.13;;;;;;;-140.66;100.00;55571.53;5114564;28;20438;-72
2023/07/01 02:42:19;;;;;;;9.43;5.20;;;;;;;-140.66;100.00;55571.53;5114401;28;20422;-72
2023/07/01 02:45:05;;;;;;;14.52;5.30;;;;;;;-140.66;100.00;55571.53;5113706;28;20028;-71
2023/07/01 02:47:51;;;;;;;8.25;5.22;;;;;;;-140.66;100.00;55571.53;5113308;28;20388;-71
2023/07/01 02:50:37;;;;;;;6.47;5.18;;;;;;;-140.66;100.00;55571.53;5113895;28;20112;-73
2023/07/01 02:53:22;;;;;;;7.70;4.82;;;;;;;-140.66;100.00;55571.53;5114054;28;20108;-72
2023/07/01 02:56:08;;;;;;;13.43;5.45;;;;;;;-140.66;100.00;55571.53;5115343;28;20034;-71
2023/07/01 02:58:54;;;;;;;7.43;4.60;;;;;;;-140.66;100.00;55571.53;5113737;28;20042;-71
2023/07/01 03:01:41;;;;;;;7.32;4.88;;;;;;;-140.66;100.00;55571.53;5114247;28;20039;-72
2023/07/01 03:04:27;;;;;;;11.65;5.60;;;;;;;-140.66;100.00;55571.53;5113658;28;20098;-71
2023/07/01 03:07:13;;;;;;;6.22;5.30;;;;;;;-140.66;100.00;55571.53;5104497;28;20028;-71
2023/07/01 03:09:59;;;;;;;8.65;5.05;;;;;;;-140.66;100.00;55571.53;5114798;28;20402;-71
2023/07/01 03:12:44;;;;;;;9.75;5.93;;;;;;;-140.66;100.00;55571.53;5114014;28;20449;-70
2023/07/01 03:15:30;;;;;;;5.70;4.47;;;;;;;-140.66;100.00;55571.53;5114022;28;20457;-73
2023/07/01 03:18:17;;;;;;;11.02;5.57;;;;;;;-140.66;100.00;55571.53;5114404;28;20208;-72
2023/07/01 03:21:04;;;;;;;11.32;5.72;;;;;;;-140.66;100.00;55571.53;5113796;28;20488;-72
2023/07/01 03:23:49;;;;;;;12.43;5.00;;;;;;;-140.66;100.00;55571.53;5113175;28;20039;-73
2023/07/01 03:26:35;;;;;;;11.15;5.50;;;;;;;-140.66;100.00;55571.53;5114656;28;20457;-72
2023/07/01 03:29:21;;;;;;;27.55;6.32;;;;;;;-140.66;100.00;55571.53;5098801;28;20031;-71
2023/07/01 03:32:08;;;;;;;14.27;5.40;;;;;;;-140.66;100.00;55571.53;5114458;28;20028;-72
2023/07/01 03:34:55;;;;;;;10.32;5.20;;;;;;;-140.66;100.00;55571.53;5112916;28;20085;-71
2023/07/01 03:37:43;;;;;;;11.13;5.45;;;;;;;-140.66;100.00;55571.53;5113448;28;20115;-72
2023/07/01 03:40:29;;;;;;;8.85;4.85;;;;;;;-140.66;100.00;55571.53;5113810;28;20016;-72
2023/07/01 03:43:14;;;;;;;5.47;4.88;;;;;;;-140.66;100.00;55571.53;5114522;28;20039;-71
2023/07/01 03:46:00;;;;;;;8.70;5.38;;;;;;;-140.66;100.00;55571.53;5113586;28;20457;-71
2023/07/01 03:48:46;;;;;;;5.57;4.72;;;;;;;-140.66;100.00;55571.53;5113649;28;20050;-72
2023/07/01 03:51:32;;;;;;;8.20;4.55;;;;;;;-140.66;100.00;55571.53;5113813;28;20039;-72
2023/07/01 03:54:18;;;;;;;6.20;5.10;;;;;;;-140.66;100.00;55571.53;5114280;28;20493;-72
2023/07/01 03:57:04;;;;;;;6.05;4.97;;;;;;;-140.66;100.00;55571.53;5113493;28;20475;-72
2023/07/01 03:59:50;;;;;;;8.75;5.05;;;;;;;-140.66;100.00;55571.53;5098913;28;20035;-73
2023/07/01 04:02:37;;;;;;;6.85;4.85;;;;;;;-140.66;100.00;55571.53;5118413;28;20055;-72
2023/07/01 04:05:22;;;;;;;7.88;4.60;;;;;;;-140.66;100.00;55571.53;5118843;28;20058;-72
2023/07/01 04:08:08;;;;;;;8.32;5.68;;;;;;;-140.66;100.00;55571.53;5117702;28;20046;-72
2023/07/01 04:10:54;;;;;;;10.63;5.20;;;;;;;-140.66;100.00;55571.53;5116829;28;20038;-73
2023/07/01 04:13:40;;;;;;;6.88;5.10;;;;;;;-140.66;100.00;55571.53;5117318;28;20063;-72
2023/07/01 04:16:25;;;;;;;6.28;4.80;;;;;;;-140.66;100.00;55571.53;5117526;28;20016;-73
2023/07/01 04:19:11;;;;;;;5.90;5.03;;;;;;;-140.66;100.00;55571.53;5117487;28;20082;-73
2023/07/01 04:21:57;;;;;;;5.95;4.63;;;;;;;-140.66;100.00;55571.53;5117710;28;20053;-72
2023/07/01 04:24:43;;;;;;;6.85;5.10;;;;;;;-140.66;100.00;55571.53;5116413;28;20061;-72
2023/07/01 04:27:28;;;;;;;8.50;4.85;;;;;;;-140.66;100.00;55571.53;5117138;28;20089;-72
2023/07/01 04:30:14;;;;;;;6.00;5.00;;;;;;;-140.66;100.00;55571.53;5102599;28;20067;-72
2023/07/01 04:33:00;;;;;;;6.35;4.72;;;;;;;-140.66;100.00;55571.53;5116416;28;20023;-72
2023/07/01 04:35:45;;;;;;;7.20;5.20;;;;;;;-140.66;100.00;55571.53;5116069;28;20099;-71
2023/07/01 04:38:31;;;;;;;9.02;5.22;;;;;;;-140.66;100.00;55571.53;5116903;28;20306;-71
2023/07/01 04:41:17;;;;;;;7.07;4.80;;;;;;;-140.66;100.00;55571.53;5116822;28;20026;-72
2023/07/01 04:44:03;;;;;;;5.22;4.70;;;;;;;-140.66;100.00;55571.53;5116913;28;20027;-71
2023/07/01 04:46:49;;;;;;;8.85;5.70;;;;;;;-140.66;100.00;55571.53;5117256;28;20492;-71
2023/07/01 04:49:34;;;;;;;6.65;5.03;;;;;;;-140.66;100.00;55571.53;5116293;28;20035;-72
2023/07/01 04:52:21;;;;;;;7.70;5.55;;;;;;;-140.66;100.00;55571.53;5116967;28;20027;-72
2023/07/01 04:55:07;;;;;;;8.30;5.22;;;;;;;-140.66;100.00;55571.53;5116432;28;20066;-71
2023/07/01 04:57:53;;;;;;;10.40;5.43;;;;;;;-140.66;100.00;55571.53;5116377;28;20353;-73
2023/07/01 05:00:38;;;;;;;10.48;5.40;;;;;;;-140.66;100.00;55571.53;5115509;28;20066;-73
2023/07/01 05:03:24;;;;;;;5.78;5.18;;;;;;;-140.66;100.00;55571.53;5116198;28;20039;-73
2023/07/01 05:06:10;;;;;;;8.18;5.78;;;;;;;-140.66;100.00;55571.53;5116676;28;20023;-72
2023/07/01 05:08:55;;;;;;;8.35;5.68;;;;;;;-140.66;100.00;55571.53;5115442;28;20055;-72
2023/07/01 05:11:41;;;;;;;6.40;5.05;;;;;;;-140.66;100.00;55571.53;5115625;28;20080;-73
2023/07/01 05:14:27;;;;;;;6.57;5.25;;;;;;;-140.66;100.00;55571.53;5115696;28;20023;-72
2023/07/01 05:17:13;;;;;;;6.93;5.57;;;;;;;-140.66;100.00;55571.53;5116301;28;20039;-72
2023/07/01 05:19:59;;;;;;;7.60;5.43;;;;;;;-140.66;100.00;55571.53;5114066;28;20079;-72
2023/07/01 05:22:44;;;;;;;6.68;5.70;;;;;;;-140.66;100.00;55571.53;5115787;28;20036;-72
2023/07/01 05:25:30;;;;;;;8.73;5.70;;;;;;;-140.66;100.00;55571.53;5116095;28;20023;-74
2023/07/01 05:28:16;;;;;;;9.50;5.60;;;;;;;-140.66;100.00;55571.53;5137611;28;20023;-73
2023/07/01 05:31:01;;;;;;;8.85;6.20;;;;;;;-140.66;100.00;55571.53;5125605;28;20028;-74
2023/07/01 05:33:47;;;;;;;12.30;6.15;;;;;;;-140.66;100.00;55571.53;5115415;28;20023;-74
2023/07/01 05:36:33;;;;;;;9.15;5.60;;;;;;;-140.66;100.00;55571.53;5116643;28;20043;-74
2023/07/01 05:39:19;;;;;;;8.57;5.70;;;;;;;-140.66;100.00;55571.53;5115359;28;20042;-75
2023/07/01 05:42:05;;;;;;;7.22;5.82;;;;;;;-140.66;100.00;55571.53;5114745;28;20016;-73
2023/07/01 05:44:50;;;;;;;9.77;5.70;;;;;;;-140.66;100.00;55571.53;5115543;28;20081;-73
2023/07/01 05:47:36;;;;;;;7.20;5.72;;;;;;;-140.66;100.00;55571.53;5138367;28;20019;-73
2023/07/01 05:50:22;;;;;;;6.38;5.70;;;;;;;-140.66;100.00;55571.53;5115058;28;20032;-72
2023/07/01 05:53:08;;;;;;;6.88;5.40;;;;;;;-140.66;100.00;55571.53;5100748;28;20113;-74
2023/07/01 05:55:53;;;;;;;8.77;6.00;;;;;;;-140.66;100.00;55571.53;5115136;28;20038;-75
2023/07/01 05:58:39;;;;;;;6.97;5.78;;;;;;;-140.66;100.00;55571.53;5115620;28;20031;-75
2023/07/01 06:01:25;;;;;;;12.10;5.93;;;;;;;-140.66;100.00;55571.53;5114748;28;20019;-75
2023/07/01 06:04:11;;;;;;;7.13;5.90;;;;;;;-140.66;100.00;55571.53;5114976;28;20020;-73
2023/07/01 06:06:56;;;;;;;7.93;6.00;;;;;;;-140.66;100.00;55571.53;5114837;28;20028;-75
2023/07/01 06:09:47;;;;;;;8.50;6.07;;;;;;;-140.66;100.00;55571.53;5114718;28;20023;-75
2023/07/01 06:12:33;;;;;;;7.13;6.03;;;;;;;-140.66;100.00;55571.53;5115977;28;20054;-74
2023/07/01 06:15:18;;;;;;;9.27;5.80;;;;;;;-140.66;100.00;55571.53;5114958;28;20077;-75
2023/07/01 06:18:04;;;;;;;6.20;5.43;;;;;;;-140.66;100.00;55571.53;5113987;28;20031;-75
2023/07/01 06:20:50;;;;;;;8.75;5.93;;;;;;;-140.66;100.00;55571.53;5099198;28;20107;-76
2023/07/01 06:23:36;;;;;;;8.60;5.80;;;;;;;-140.66;100.00;55571.53;5114259;28;20153;-75
2023/07/01 06:26:22;;;;;;;8.07;6.00;;;;;;;-140.66;100.00;55571.53;5114972;28;20102;-75
2023/07/01 06:29:08;;;;;;;6.90;5.68;;;;;;;-140.66;100.00;55571.53;5113934;28;20027;-75
2023/07/01 06:31:54;;;;;;;9.20;6.35;;;;;;;-140.66;100.00;55571.53;5114950;28;20060;-75
2023/07/01 06:34:39;;;;;;;8.35;5.72;;;;;;;-140.66;100.00;55571.53;5114748;28;20016;-76
2023/07/01 06:37:25;;;;;;;7.63;6.25;;;;;;;-140.66;100.00;55571.53;5114873;28;20019;-75
2023/07/01 06:40:12;;;;;;;7.80;6.28;;;;;;;-140.66;100.00;55571.53;5114773;28;20088;-74
2023/07/01 06:42:58;;;;;;;8.75;6.30;;;;;;;-140.66;100.00;55571.53;5113868;28;20042;-75
2023/07/01 06:45:43;;;;;;;9.65;6.22;;;;;;;-140.66;100.00;55571.53;5115099;28;20033;-75
2023/07/01 06:48:29;;;;;;;10.27;5.90;;;;;;;-140.66;100.00;55571.53;5114741;28;20041;-75
2023/07/01 06:51:15;;;;;;;5.97;5.13;;;;;;;-140.66;100.00;55571.53;5113586;28;20085;-75
2023/07/01 06:54:00;;;;;;;10.13;5.22;;;;;;;-140.66;100.00;55571.53;5114377;28;20027;-75
2023/07/01 06:56:46;;;;;;;4.95;4.45;;;;;;;-140.66;100.00;55571.53;5112647;28;20396;-75
2023/07/01 06:59:32;;;;;;;6.00;4.47;;;;;;;-140.66;100.00;55571.53;5114113;28;20124;-74
2023/07/01 07:02:18;;;;;;;6.70;4.90;;;;;;;-140.66;100.00;55571.53;5115056;28;20046;-74
2023/07/01 07:05:08;;;;;;;6.78;4.50;;;;;;;-140.66;100.00;55571.53;5114876;28;20027;-75
2023/07/01 07:07:54;;;;;;;5.88;4.65;;;;;;;-140.66;100.00;55571.53;5113957;28;20111;-75
2023/07/01 07:10:40;;;;;;;4.70;4.30;;;;;;;-140.66;100.00;55571.53;5115865;28;20031;-76
2023/07/01 07:13:25;;;;;;;8.50;4.35;;;;;;;-140.66;100.00;55571.53;5114142;28;20095;-75
2023/07/01 07:16:11;;;;;;;4.90;4.30;;;;;;;-140.66;100.00;55571.53;5114508;28;20040;-75
2023/07/01 07:18:57;;;;;;;4.95;4.50;;;;;;;-140.66;100.00;55571.53;5113165;28;20047;-75
2023/07/01 07:21:42;;;;;;;6.32;4.22;;;;;;;-140.66;100.00;55571.53;5115058;28;20019;-75
2023/07/01 07:24:28;;;;;;;4.22;3.83;;;;;;;-140.66;100.00;55571.53;5107558;28;20023;-76
2023/07/01 07:27:14;;;;;;;6.05;4.20;;;;;;;-140.66;100.00;55571.53;5114598;28;20349;-75
2023/07/01 07:30:00;;;;;;;6.13;4.53;;;;;;;-140.66;100.00;55571.53;5114230;28;20069;-76
2023/07/01 07:32:45;;;;;;;6.72;4.22;;;;;;;-140.66;100.00;55571.53;5114779;28;20023;-76
2023/07/01 07:35:31;;;;;;;4.88;4.40;;;;;;;-140.66;100.00;55571.53;5115274;28;20027;-75
2023/07/01 07:38:17;;;;;;;5.00;4.28;;;;;;;-140.66;100.00;55571.53;5131372;27;20066;-75
2023/07/01 07:41:03;;;;;;;5.15;4.25;;;;;;;-140.66;100.00;55571.53;5118459;28;20020;-74
2023/07/01 07:43:48;;;;;;;5.55;4.50;;;;;;;-140.66;100.00;55571.53;5130770;27;20118;-75
2023/07/01 07:46:35;;;;;;;6.80;4.55;;;;;;;-140.66;100.00;55571.53;5131203;27;20114;-75
2023/07/01 07:49:21;;;;;;;4.70;4.30;;;;;;;-140.66;100.00;55571.53;5117999;28;20031;-74
2023/07/01 07:52:07;;;;;;;6.28;4.55;;;;;;;-140.66;100.00;55571.53;5118252;28;20028;-74
2023/07/01 07:54:53;;;;;;;7.97;4.22;;;;;;;-140.66;100.00;55571.53;5117691;28;20364;-74
2023/07/01 07:57:38;;;;;;;6.75;4.40;;;;;;;-140.66;100.00;55571.53;5116808;28;20031;-76
2023/07/01 08:00:24;;;;;;;5.20;4.43;;;;;;;-140.66;100.00;55571.53;5117551;28;20028;-75
2023/07/01 08:03:12;;;;;;;10.95;4.13;;;;;;;-140.66;100.00;55571.53;5117331;28;20015;-75
2023/07/01 08:05:57;;;;;;;4.50;3.90;;;;;;;-140.66;100.00;55571.53;5117493;28;20031;-75
2023/07/01 08:08:43;;;;;;;4.53;3.90;;;;;;;-140.66;100.00;55571.53;5117592;28;20028;-74
2023/07/01 08:11:29;;;;;;;4.55;4.15;;;;;;;-140.66;100.00;55571.53;5117358;28;20042;-75
2023/07/01 08:14:15;;;;;;;4.28;3.88;;;;;;;-140.66;100.00;55571.53;5118022;28;20023;-75
2023/07/01 08:17:00;;;;;;;4.05;3.65;;;;;;;-140.66;100.00;55571.53;5117658;28;20031;-75
2023/07/01 08:19:46;;;;;;;5.78;4.00;;;;;;;-140.66;100.00;55571.53;5116849;28;20115;-74
2023/07/01 08:22:32;;;;;;;4.38;3.13;;;;;;;-140.66;100.00;55571.53;5118514;28;20023;-75
2023/07/01 08:25:17;;;;;;;4.57;3.50;;;;;;;-140.66;100.00;55571.53;5117243;28;20063;-74
2023/07/01 08:28:03;;;;;;;4.30;3.30;;;;;;;-140.66;100.00;55571.53;5118302;28;20066;-75
2023/07/01 08:30:49;;;;;;;5.65;3.60;;;;;;;-140.66;100.00;55571.53;5129723;27;20035;-75
2023/07/01 08:33:35;;;;;;;7.03;3.75;;;;;;;-140.66;100.00;55571.53;5117171;28;20024;-75
2023/07/01 08:36:20;;;;;;;5.03;3.70;;;;;;;-140.66;100.00;55571.53;5122461;28;20354;-75
2023/07/01 08:39:07;;;;;;;4.60;3.50;;;;;;;-140.66;100.00;55571.53;5123937;28;20438;-76
2023/07/01 08:42:04;;;;;;;6.40;4.18;;;;;;;-140.66;100.00;55571.53;5141043;28;20016;-75
2023/07/01 08:44:50;;;;;;;5.57;5.05;;;;;;;-140.66;100.00;55571.53;5121405;28;20024;-75
2023/07/01 08:47:36;;;;;;;4.10;3.35;;;;;;;-140.66;100.00;55571.53;5117011;28;20031;-75
2023/07/01 08:50:23;;;;;;;6.00;3.33;;;;;;;-140.66;100.00;55571.53;5116374;28;20027;-75
2023/07/01 08:53:10;;;;;;;7.72;3.13;;;;;;;-140.66;100.00;55571.53;5116900;28;20023;-75
2023/07/01 08:55:56;;;;;;;5.72;3.83;;;;;;;-140.66;100.00;55571.53;5117843;28;20050;-75
2023/07/01 08:58:45;;;;;;;10.40;3.97;;;;;;;-140.66;100.00;55571.53;5116451;28;20024;-75
2023/07/01 09:01:32;;;;;;;3.40;3.10;;;;;;;-140.66;100.00;55571.53;5116111;28;20023;-76
2023/07/01 09:04:18;;;;;;;4.93;2.97;;;;;;;-140.66;100.00;55571.53;5132383;27;20415;-76
2023/07/01 09:07:05;;;;;;;4.47;3.08;;;;;;;-140.66;100.00;55571.53;5120499;28;20059;-75
2023/07/01 09:09:51;;;;;;;6.30;3.22;;;;;;;-140.66;100.00;55571.53;5135247;28;20030;-74
2023/07/01 09:12:37;;;;;;;12.60;3.45;;;;;;;-140.66;100.00;55571.53;5122920;28;20035;-73
2023/07/01 09:15:22;;;;;;;4.85;2.70;;;;;;;-140.66;100.00;55571.53;5123881;28;20361;-75
2023/07/01 09:18:25;;;;;;;6.28;2.78;;;;;;;-140.66;100.00;55571.53;5116660;28;20125;-75
2023/07/01 09:21:18;;;;;;;2.65;2.45;;;;;;;-140.66;100.00;55571.53;5118081;28;20034;-75
2023/07/01 09:24:10;;;;;;;2.75;2.55;;;;;;;-140.66;100.00;55571.53;5150831;27;20092;-74
2023/07/01 09:26:55;;;;;;;2.97;2.70;;;;;;;-140.66;100.00;55571.53;5136335;27;20027;-75
2023/07/01 09:29:42;;;;;;;2.95;2.70;;;;;;;-140.66;100.00;55571.53;5117497;28;20020;-75
2023/07/01 09:32:28;;;;;;;2.85;2.55;;;;;;;-140.66;100.00;55571.53;5116168;28;20106;-74
2023/07/01 09:35:14;;;;;;;3.70;2.78;;;;;;;-140.66;100.00;55571.53;5115823;28;20027;-75
2023/07/01 09:38:03;;;;;;;6.32;3.33;;;;;;;-140.66;100.00;55571.53;5117006;28;20038;-76
2023/07/01 09:40:49;;;;;;;5.82;2.80;;;;;;;-140.66;100.00;55571.53;5115794;28;20353;-75
2023/07/01 09:43:34;;;;;;;5.13;3.10;;;;;;;-140.66;100.00;55571.53;5121834;28;20027;-75
2023/07/01 09:46:21;;;;;;;3.20;2.90;;;;;;;-140.66;100.00;55571.53;5122446;28;20027;-74
2023/07/01 09:49:07;;;;;;;4.47;2.85;;;;;;;-140.66;100.00;55571.53;5119921;28;20034;-74
2023/07/01 09:51:54;;;;;;;5.38;2.97;;;;;;;-140.66;100.00;55571.53;5119106;28;20019;-75
2023/07/01 09:54:42;;;;;;;3.30;3.00;;;;;;;-140.66;100.00;55571.53;5120789;28;20032;-74
2023/07/01 09:57:29;;;;;;;6.07;3.00;;;;;;;-140.66;100.00;55571.53;5122004;28;20108;-76
2023/07/01 10:00:16;;;;;;;3.28;2.78;;;;;;;-140.66;100.00;55571.53;5122117;28;20441;-74
2023/07/01 10:03:02;;;;;;;5.72;2.85;;;;;;;-140.66;100.00;55571.53;5120055;28;20031;-74
2023/07/01 10:05:50;;;;;;;3.40;3.10;;;;;;;-140.66;100.00;55571.53;5122804;28;20039;-75
2023/07/01 10:08:37;;;;;;;4.43;3.20;;;;;;;-140.66;100.00;55571.53;5118504;28;20035;-75
2023/07/01 10:11:25;;;;;;;3.00;2.70;;;;;;;-140.66;100.00;55571.53;5116152;28;20016;-75
2023/07/01 10:14:11;;;;;;;3.08;2.78;;;;;;;-140.66;100.00;55571.53;5115434;28;20028;-75
2023/07/01 10:16:57;;;;;;;3.10;2.80;;;;;;;-140.66;100.00;55571.53;5115534;28;20035;-75
2023/07/01 10:19:47;;;;;;;4.60;3.03;;;;;;;-140.66;100.00;55571.53;5117118;28;20051;-75
2023/07/01 10:22:33;;;;;;;5.45;3.20;;;;;;;-140.66;100.00;55571.53;5116841;28;20028;-76
2023/07/01 10:25:29;;;;;;;3.30;3.00;;;;;;;-140.66;100.00;55571.53;5114296;27;20047;-76
2023/07/01 10:28:15;;;;;;;5.72;2.80;;;;;;;-140.66;100.00;55571.53;5132503;27;20095;-75
2023/07/01 10:31:01;;;;;;;3.22;2.92;;;;;;;-140.66;100.00;55571.53;5118568;28;20028;-75
2023/07/01 10:33:46;;;;;;;3.90;2.88;;;;;;;-140.66;100.00;55571.53;5117649;28;20415;-75
2023/07/01 10:36:36;;;;;;;3.38;2.90;;;;;;;-140.66;100.00;55571.53;5116006;28;20027;-74
2023/07/01 10:39:36;;;;;;;3.20;2.90;;;;;;;-140.66;100.00;55571.53;5128291;27;20058;-74
2023/07/01 10:42:31;;;;;;;8.15;3.40;;;;;;;-140.66;100.00;55571.53;5116034;28;20027;-75
2023/07/01 10:45:37;;;;;;;3.72;3.28;;;;;;;-140.66;100.00;55571.53;5107626;28;20107;-74
2023/07/01 10:48:23;;;;;;;3.40;3.10;;;;;;;-140.66;100.00;55571.53;5107764;28;20352;-75
2023/07/01 10:51:13;;;;;;;4.15;3.00;;;;;;;-140.66;100.00;55571.53;5114822;28;20034;-75
2023/07/01 10:54:03;;;;;;;3.50;3.20;;;;;;;-140.66;100.00;55571.53;5114890;28;20055;-75
2023/07/01 10:57:12;;;;;;;4.25;2.97;;;;;;;-140.66;100.00;55571.53;5114839;28;20034;-74
2023/07/01 11:00:35;;;;;;;3.25;2.83;;;;;;;-140.66;100.00;55571.53;5114978;28;20027;-75
2023/07/01 11:03:36;;;;;;;6.28;3.22;;;;;;;-140.66;100.00;55571.53;5115243;28;20020;-75
2023/07/01 11:06:22;;;;;;;3.92;3.38;;;;;;;-140.66;100.00;55571.53;5115257;28;20373;-75
2023/07/01 11:09:08;;;;;;;2.95;2.75;;;;;;;-140.66;100.00;55571.53;5113503;28;20023;-75
2023/07/01 11:11:56;;;;;;;3.90;3.20;;;;;;;-140.66;100.00;55571.53;5114222;28;20023;-75
2023/07/01 11:14:41;;;;;;;5.82;2.80;;;;;;;-140.66;100.00;55571.53;5113843;28;20043;-75
2023/07/01 11:17:27;;;;;;;2.92;2.70;;;;;;;-140.66;100.00;55571.53;5115193;28;20031;-75
2023/07/01 11:20:13;;;;;;;2.80;2.60;;;;;;;-140.66;100.00;55571.53;5114195;28;20440;-75
2023/07/01 11:22:59;;;;;;;3.80;3.00;;;;;;;-140.66;100.00;55571.53;5115103;28;20380;-75
2023/07/01 11:25:45;;;;;;;3.40;2.80;;;;;;;-140.66;100.00;55571.53;5113865;28;20035;-75
2023/07/01 11:28:36;;;;;;;4.50;3.00;;;;;;;-140.66;100.00;55571.53;5115448;28;20080;-75
2023/07/01 11:31:24;;;;;;;5.10;3.20;;;;;;;-140.66;100.00;55571.53;5114925;28;20020;-75
2023/07/01 11:34:18;;;;;;;5.85;3.08;;;;;;;-140.66;100.00;55571.53;5115752;28;20100;-75
2023/07/01 11:37:05;;;;;;;3.28;2.90;;;;;;;-140.66;100.00;55571.53;5112213;28;20028;-75
2023/07/01 11:39:52;;;;;;;5.65;2.80;;;;;;;-140.66;100.00;55571.53;5114900;28;20019;-75
2023/07/01 11:42:38;;;;;;;3.55;2.92;;;;;;;-140.66;100.00;55571.53;5115195;28;20027;-75
2023/07/01 11:45:27;;;;;;;7.63;3.15;;;;;;;-140.66;100.00;55571.53;5127207;28;20028;-75
2023/07/01 11:48:13;;;;;;;5.85;2.75;;;;;;;-140.66;100.00;55571.53;5115135;28;20027;-75
2023/07/01 11:50:59;;;;;;;2.85;2.65;;;;;;;-140.66;100.00;55571.53;5114491;28;20042;-75
2023/07/01 11:53:57;;;;;;;3.40;2.95;;;;;;;-140.66;100.00;55571.53;5126829;28;20055;-75
2023/07/01 11:56:44;;;;;;;6.60;2.60;;;;;;;-140.66;100.00;55571.53;5125150;28;20368;-75
2023/07/01 11:59:31;;;;;;;2.90;2.60;;;;;;;-140.66;100.00;55571.53;5120805;28;20053;-75
2023/07/01 12:02:29;;;;;;;2.85;2.53;;;;;;;-140.66;100.00;55571.53;5112589;28;20052;-74
2023/07/01 12:05:20;;;;;;;3.60;2.90;;;;;;;-140.66;100.00;55571.53;5115227;28;20028;-74
2023/07/01 12:08:05;;;;;;;3.90;2.65;;;;;;;-140.66;100.00;55571.53;5133218;28;20114;-73
2023/07/01 12:10:52;;;;;;;5.28;2.72;;;;;;;-140.66;100.00;55571.53;5132942;28;20019;-73
2023/07/01 12:13:39;;;;;;;5.18;2.50;;;;;;;-140.66;100.00;55571.53;5132344;28;20043;-75
2023/07/01 12:16:42;;;;;;;3.33;2.67;;;;;;;-140.66;100.00;55571.53;5133169;28;20330;-75
2023/07/01 12:19:29;;;;;;;3.22;2.63;;;;;;;-140.66;100.00;55571.53;5118572;28;20043;-74
2023/07/01 12:22:15;;;;;;;5.13;2.75;;;;;;;-140.66;100.00;55571.53;5135293;27;20094;-71
2023/07/01 12:25:01;;;;;;;8.82;2.90;;;;;;;-140.66;100.00;55571.53;5138112;27;20106;-71
2023/07/01 12:27:47;;;;;;;6.13;2.83;;;;;;;-140.66;100.00;55571.53;5137341;27;20360;-71
2023/07/01 12:30:32;;;;;;;2.95;2.50;;;;;;;-140.66;100.00;55571.53;5135801;27;20447;-71
2023/07/01 12:33:18;;;;;;;4.95;2.85;;;;;;;-140.66;100.00;55571.53;5136694;27;20046;-71
2023/07/01 12:36:04;;;;;;;3.33;2.33;;;;;;;-140.66;100.00;55571.53;5138723;27;20030;-71
2023/07/01 12:38:50;;;;;;;2.72;2.53;;;;;;;-140.66;100.00;55571.53;5137107;27;20037;-72